createdAt,value
2018-05-01T00:01:30.104Z,4.43
2018-05-01T00:03:58.494Z,4.50
2018-05-01T00:06:26.840Z,4.60
2018-05-01T00:08:54.423Z,5.57
2018-05-01T00:11:22.058Z,5.90
2018-05-01T00:13:49.689Z,6.87
2018-05-01T00:16:17.257Z,8.03
2018-05-01T00:18:44.841Z,7.97
2018-05-01T00:21:12.450Z,8.20
2018-05-01T00:23:40.023Z,8.87
2018-05-01T00:26:07.644Z,8.40
2018-05-01T00:28:35.220Z,8.63
2018-05-01T00:31:03.597Z,9.27
2018-05-01T00:33:31.928Z,9.67
2018-05-01T00:35:59.547Z,10.10
2018-05-01T00:38:27.126Z,11.47
2018-05-01T00:40:54.745Z,11.50
2018-05-01T00:43:22.363Z,10.33
2018-05-01T00:45:49.978Z,10.00
2018-05-01T00:48:17.556Z,10.63
2018-05-01T00:50:45.181Z,11.47
2018-05-01T00:53:12.757Z,10.63
2018-05-01T00:55:40.372Z,10.20
2018-05-01T00:58:08.003Z,10.90
2018-05-01T01:00:35.618Z,10.60
2018-05-01T01:03:03.235Z,11.17
2018-05-01T01:05:30.862Z,10.73
2018-05-01T01:07:58.442Z,9.63
2018-05-01T01:10:26.817Z,9.33
2018-05-01T01:12:55.343Z,8.77
2018-05-01T01:15:23.105Z,8.63
2018-05-01T01:17:50.675Z,7.97
2018-05-01T01:20:18.300Z,8.40
2018-05-01T01:22:45.872Z,7.43
2018-05-01T01:25:13.468Z,8.00
2018-05-01T01:27:41.095Z,7.27
2018-05-01T01:30:08.670Z,6.93
2018-05-01T01:32:36.242Z,7.23
2018-05-01T01:35:03.877Z,6.80
2018-05-01T01:37:31.010Z,6.83
2018-05-01T01:39:58.899Z,6.67
2018-05-01T01:42:25.989Z,6.57
2018-05-01T01:44:53.120Z,6.60
2018-05-01T01:47:20.204Z,5.80
2018-05-01T01:49:47.342Z,5.43
2018-05-01T01:52:14.438Z,4.93
2018-05-01T01:54:41.527Z,4.63
2018-05-01T01:57:08.645Z,5.60
2018-05-01T01:59:35.741Z,4.50
2018-05-01T02:02:03.621Z,4.67
2018-05-01T02:04:30.750Z,3.93
2018-05-01T02:06:57.895Z,3.37
2018-05-01T02:09:25.029Z,3.83
2018-05-01T02:11:52.112Z,4.20
2018-05-01T02:14:19.246Z,3.40
2018-05-01T02:16:46.326Z,3.20
2018-05-01T02:19:13.445Z,3.27
2018-05-01T02:21:40.593Z,2.10
2018-05-01T02:24:07.682Z,2.10
2018-05-01T02:26:34.806Z,1.70
2018-05-01T02:29:01.916Z,1.43
2018-05-01T02:31:29.043Z,1.30
2018-05-01T02:33:56.926Z,1.80
2018-05-01T02:36:24.020Z,2.00
2018-05-01T02:38:51.163Z,1.63
2018-05-01T02:41:18.408Z,2.00
2018-05-01T02:43:45.407Z,1.30
2018-05-01T02:46:13.275Z,1.17
2018-05-01T02:48:41.168Z,1.10
2018-05-01T02:51:08.261Z,1.10
2018-05-01T02:53:35.392Z,0.80
2018-05-01T02:56:02.517Z,0.70
2018-05-01T02:58:29.602Z,0.70
2018-05-01T03:00:56.748Z,0.70
2018-05-01T03:03:23.887Z,0.80
2018-05-01T03:05:51.055Z,0.90
2018-05-01T03:08:18.173Z,0.90
2018-05-01T03:10:45.275Z,93.80
2018-05-01T03:13:13.166Z,86.97
2018-05-01T03:15:40.311Z,54.70
2018-05-01T03:18:07.413Z,40.13
2018-05-01T03:20:34.551Z,47.40
2018-05-01T03:23:01.651Z,48.07
2018-05-01T03:25:29.549Z,44.63
2018-05-01T03:27:56.686Z,517.60
2018-05-01T03:30:23.788Z,358.83
2018-05-01T03:32:50.927Z,712.43
2018-05-01T03:35:18.076Z,195.50
2018-05-01T03:37:45.227Z,139.07
2018-05-01T03:40:12.332Z,190.77
2018-05-01T03:42:40.257Z,49.77
2018-05-01T03:45:07.336Z,71.67
2018-05-01T03:47:34.476Z,526.87
2018-05-01T03:50:01.593Z,780.43
2018-05-01T03:52:28.681Z,855.30
2018-05-01T03:54:55.773Z,566.00
2018-05-01T03:57:22.950Z,245.30
2018-05-01T03:59:50.043Z,361.77
2018-05-01T04:02:18.111Z,462.00
2018-05-01T04:04:45.139Z,472.03
2018-05-01T04:07:12.267Z,496.43
2018-05-01T04:09:39.355Z,455.57
2018-05-01T04:12:07.257Z,420.37
2018-05-01T04:14:34.381Z,390.93
2018-05-01T04:17:01.460Z,358.33
2018-05-01T04:19:28.615Z,318.80
2018-05-01T04:21:55.722Z,277.77
2018-05-01T04:24:23.612Z,227.60
2018-05-01T04:26:50.742Z,161.83
2018-05-01T04:29:17.841Z,105.47
2018-05-01T04:31:45.018Z,79.07
2018-05-01T04:34:12.166Z,40.53
2018-05-01T04:36:39.304Z,38.63
2018-05-01T04:39:06.392Z,45.90
2018-05-01T04:41:34.296Z,53.83
2018-05-01T04:44:01.382Z,71.60
2018-05-01T04:46:28.505Z,73.30
2018-05-01T04:48:55.603Z,66.83
2018-05-01T04:51:22.842Z,54.63
2018-05-01T04:53:49.933Z,41.60
2018-05-01T04:56:17.063Z,54.83
2018-05-01T04:58:44.926Z,112.90
2018-05-01T05:01:12.032Z,201.70
2018-05-01T05:03:39.169Z,357.90
2018-05-01T05:06:06.310Z,438.37
2018-05-01T05:08:33.415Z,521.27
2018-05-01T05:11:00.543Z,495.37
2018-05-01T05:13:27.687Z,494.50
2018-05-01T05:15:54.817Z,324.70
2018-05-01T05:18:22.110Z,154.50
2018-05-01T05:20:49.198Z,32.00
2018-05-01T05:23:17.067Z,78.50
2018-05-01T05:25:44.207Z,415.93
2018-05-01T05:28:11.353Z,632.53
2018-05-01T05:30:38.447Z,757.87
2018-05-01T05:33:05.580Z,854.00
2018-05-01T05:35:32.670Z,914.43
2018-05-01T05:37:59.809Z,951.87
2018-05-01T05:40:26.955Z,945.50
2018-05-01T05:42:54.209Z,930.60
2018-05-01T05:45:21.309Z,897.77
2018-05-01T05:47:49.202Z,849.03
2018-05-01T05:50:16.336Z,772.50
2018-05-01T05:52:43.421Z,609.00
2018-05-01T05:55:10.549Z,433.07
2018-05-01T05:57:37.674Z,213.20
2018-05-01T06:00:05.561Z,79.73
2018-05-01T06:02:32.686Z,192.20
2018-05-01T06:04:59.824Z,502.73
2018-05-01T06:07:26.940Z,595.53
2018-05-01T06:09:54.129Z,634.47
2018-05-01T06:12:21.225Z,619.27
2018-05-01T06:14:48.370Z,559.20
2018-05-01T06:17:15.466Z,501.30
2018-05-01T06:19:42.598Z,429.33
2018-05-01T06:22:09.721Z,380.53
2018-05-01T06:24:36.855Z,332.67
2018-05-01T06:27:04.736Z,283.63
2018-05-01T06:29:31.870Z,259.27
2018-05-01T06:31:59.767Z,242.60
2018-05-01T06:34:26.886Z,195.97
2018-05-01T06:36:54.017Z,156.47
2018-05-01T06:39:21.129Z,141.00
2018-05-01T06:41:48.253Z,117.53
2018-05-01T06:44:15.332Z,101.57
2018-05-01T06:46:42.461Z,94.73
2018-05-01T06:49:09.527Z,85.57
2018-05-01T06:51:36.605Z,69.50
2018-05-01T06:54:03.721Z,57.73
2018-05-01T06:56:30.802Z,55.27
2018-05-01T06:58:57.920Z,49.13
2018-05-01T07:01:25.014Z,43.83
2018-05-01T07:03:52.148Z,40.67
2018-05-01T07:06:19.281Z,37.40
2018-05-01T07:08:46.377Z,40.63
2018-05-01T07:11:13.549Z,35.13
2018-05-01T07:13:40.638Z,35.83
2018-05-01T07:16:07.778Z,35.40
2018-05-01T07:18:34.870Z,34.13
2018-05-01T07:21:02.767Z,37.23
2018-05-01T07:23:29.861Z,31.67
2018-05-01T07:25:56.995Z,33.60
2018-05-01T07:28:24.140Z,29.30
2018-05-01T07:30:51.231Z,34.73
2018-05-01T07:33:19.110Z,27.03
2018-05-01T07:35:46.258Z,29.97
2018-05-01T07:38:13.383Z,38.37
2018-05-01T07:40:40.466Z,26.57
2018-05-01T07:43:08.363Z,28.50
2018-05-01T07:45:35.449Z,28.10
2018-05-01T07:48:02.533Z,34.70
2018-05-01T07:50:30.416Z,26.93
2018-05-01T07:52:57.590Z,27.50
2018-05-01T07:55:24.755Z,29.37
2018-05-01T07:57:51.847Z,27.17
2018-05-01T08:00:18.990Z,26.77
2018-05-01T08:02:46.097Z,28.50
2018-05-01T08:05:13.188Z,25.43
2018-05-01T08:07:41.095Z,27.13
2018-05-01T08:10:08.181Z,30.57
2018-05-01T08:12:35.314Z,25.83
2018-05-01T08:15:04.481Z,28.43
2018-05-01T08:17:31.611Z,29.97
2018-05-01T08:19:58.807Z,28.97
2018-05-01T08:22:27.150Z,28.20
2018-05-01T08:24:55.074Z,26.67
2018-05-01T08:27:22.215Z,29.33
2018-05-01T08:29:49.332Z,36.87
2018-05-01T08:32:16.846Z,31.83
2018-05-01T08:34:43.927Z,32.07
2018-05-01T08:37:11.816Z,30.37
2018-05-01T08:39:38.950Z,31.80
2018-05-01T08:42:06.049Z,36.07
2018-05-01T08:44:33.189Z,37.00
2018-05-01T08:47:00.303Z,38.90
2018-05-01T08:49:27.426Z,39.00
2018-05-01T08:51:54.513Z,41.07
2018-05-01T08:54:21.634Z,40.13
2018-05-01T08:56:48.732Z,40.37
2018-05-01T08:59:15.900Z,40.50
2018-05-01T09:01:42.994Z,41.60
2018-05-01T09:04:10.199Z,43.87
2018-05-01T09:06:37.237Z,39.20
2018-05-01T09:09:04.384Z,68.83
2018-05-01T09:11:31.508Z,49.30
2018-05-01T09:13:58.602Z,39.60
2018-05-01T09:16:25.718Z,45.17
2018-05-01T09:18:52.800Z,36.87
2018-05-01T09:21:19.918Z,46.27
2018-05-01T09:23:46.997Z,37.10
2018-05-01T09:26:14.124Z,39.90
2018-05-01T09:28:41.210Z,36.30
2018-05-01T09:31:08.297Z,36.43
2018-05-01T09:33:35.419Z,38.37
2018-05-01T09:36:02.528Z,38.23
2018-05-01T09:38:29.645Z,40.57
2018-05-01T09:40:57.493Z,37.33
2018-05-01T09:43:24.609Z,33.33
2018-05-01T09:45:51.732Z,34.20
2018-05-01T09:48:18.810Z,34.00
2018-05-01T09:50:45.929Z,31.53
2018-05-01T09:53:13.569Z,30.57
2018-05-01T09:55:41.909Z,34.53
2018-05-01T09:58:09.481Z,33.00
2018-05-01T10:00:37.089Z,33.13
2018-05-01T10:03:04.666Z,33.30
2018-05-01T10:05:32.280Z,36.47
2018-05-01T10:07:59.853Z,34.90
2018-05-01T10:10:28.237Z,36.70
2018-05-01T10:12:56.584Z,32.40
2018-05-01T10:15:24.210Z,39.17
2018-05-01T10:17:51.827Z,32.37
2018-05-01T10:20:19.440Z,32.23
2018-05-01T10:22:47.035Z,36.53
2018-05-01T10:25:14.647Z,31.73
2018-05-01T10:27:42.233Z,35.07
2018-05-01T10:30:09.848Z,37.20
2018-05-01T10:32:38.231Z,37.00
2018-05-01T10:35:05.853Z,30.33
2018-05-01T10:37:33.465Z,27.23
2018-05-01T10:40:01.030Z,23.30
2018-05-01T10:42:28.612Z,26.20
2018-05-01T10:44:56.223Z,26.80
2018-05-01T10:47:23.797Z,27.13
2018-05-01T10:49:51.411Z,29.67
2018-05-01T10:52:19.022Z,27.27
2018-05-01T10:54:46.697Z,23.80
2018-05-01T10:57:14.360Z,25.30
2018-05-01T10:59:41.974Z,23.00
2018-05-01T11:02:09.544Z,22.23
2018-05-01T11:04:37.172Z,24.27
2018-05-01T11:07:04.746Z,27.50
2018-05-01T11:09:32.373Z,23.07
2018-05-01T11:11:59.963Z,28.10
2018-05-01T11:14:27.820Z,26.57
2018-05-01T11:16:55.443Z,25.57
2018-05-01T11:19:23.779Z,27.23
2018-05-01T11:21:51.397Z,26.10
2018-05-01T11:24:18.977Z,27.83
2018-05-01T11:26:46.563Z,30.57
2018-05-01T11:29:14.180Z,29.13
2018-05-01T11:31:41.763Z,27.67
2018-05-01T11:34:09.384Z,30.37
2018-05-01T11:36:36.970Z,26.00
2018-05-01T11:39:05.085Z,26.27
2018-05-01T11:41:33.048Z,27.47
2018-05-01T11:44:01.013Z,28.20
2018-05-01T11:46:28.741Z,22.97
2018-05-01T11:48:57.660Z,23.57
2018-05-01T11:51:27.010Z,24.23
2018-05-01T11:53:55.417Z,28.17
2018-05-01T11:56:23.001Z,23.97
2018-05-01T11:58:50.577Z,22.57
2018-05-01T12:01:18.216Z,22.37
2018-05-01T12:03:45.781Z,22.20
2018-05-01T12:06:13.381Z,29.27
2018-05-01T12:08:41.223Z,24.23
2018-05-01T12:11:08.802Z,25.50
2018-05-01T12:13:36.433Z,24.90
2018-05-01T12:16:04.066Z,28.57
2018-05-01T12:18:31.766Z,17.80
2018-05-01T12:20:59.357Z,22.37
2018-05-01T12:23:26.938Z,20.47
2018-05-01T12:25:54.575Z,21.57
2018-05-01T12:28:22.197Z,20.57
2018-05-01T12:30:49.806Z,28.83
2018-05-01T12:33:17.423Z,25.50
2018-05-01T12:35:44.993Z,22.50
2018-05-01T12:38:12.606Z,32.43
2018-05-01T12:40:40.988Z,22.37
2018-05-01T12:43:09.375Z,62.87
2018-05-01T12:45:36.950Z,23.17
2018-05-01T12:48:04.571Z,27.83
2018-05-01T12:50:32.219Z,29.97
2018-05-01T12:52:59.846Z,24.10
2018-05-01T12:55:29.285Z,27.03
2018-05-01T12:57:58.081Z,25.10
2018-05-01T13:00:25.699Z,23.80
2018-05-01T13:02:53.269Z,26.50
2018-05-01T13:05:20.928Z,41.53
2018-05-01T13:07:48.507Z,80.17
2018-05-01T13:10:16.092Z,113.77
2018-05-01T13:12:43.719Z,127.93
2018-05-01T13:15:12.061Z,128.90
2018-05-01T13:17:39.694Z,136.23
2018-05-01T13:20:08.169Z,138.33
2018-05-01T13:22:35.769Z,140.40
2018-05-01T13:25:03.389Z,128.97
2018-05-01T13:27:30.972Z,138.30
2018-05-01T13:29:58.581Z,149.10
2018-05-01T13:32:26.193Z,131.77
2018-05-01T13:34:53.835Z,146.87
2018-05-01T13:37:21.419Z,120.97
2018-05-01T13:39:49.004Z,125.40
2018-05-01T13:42:16.641Z,135.57
2018-05-01T13:44:44.235Z,123.03
2018-05-01T13:47:11.863Z,102.10
2018-05-01T13:49:39.462Z,102.17
2018-05-01T13:52:07.226Z,84.97
2018-05-01T13:54:34.835Z,63.10
2018-05-01T13:57:02.453Z,43.53
2018-05-01T13:59:30.178Z,42.40
2018-05-01T14:01:58.575Z,44.50
2018-05-01T14:04:26.188Z,43.27
2018-05-01T14:06:53.817Z,42.97
2018-05-01T14:09:21.601Z,44.13
2018-05-01T14:11:49.243Z,46.17
2018-05-01T14:14:16.886Z,48.40
2018-05-01T14:16:44.480Z,47.57
2018-05-01T14:19:12.100Z,60.20
2018-05-01T14:21:39.765Z,88.73
2018-05-01T14:24:07.360Z,76.37
2018-05-01T14:26:34.945Z,67.17
2018-05-01T14:29:02.579Z,86.37
2018-05-01T14:31:30.167Z,131.17
2018-05-01T14:33:57.772Z,114.93
2018-05-01T14:36:25.475Z,162.73
2018-05-01T14:38:53.110Z,195.20
2018-05-01T14:41:20.713Z,204.00
2018-05-01T14:43:48.338Z,196.63
2018-05-01T14:46:16.010Z,195.23
2018-05-01T14:48:43.665Z,189.33
2018-05-01T14:51:11.299Z,201.10
2018-05-01T14:53:39.704Z,193.37
2018-05-01T14:56:07.486Z,188.57
2018-05-01T14:58:35.081Z,194.13
2018-05-01T15:01:02.742Z,207.20
2018-05-01T15:03:30.435Z,215.10
2018-05-01T15:05:58.924Z,205.23
2018-05-01T15:08:27.521Z,199.67
2018-05-01T15:10:55.147Z,190.07
2018-05-01T15:13:22.734Z,198.10
2018-05-01T15:15:50.370Z,160.50
2018-05-01T15:18:18.028Z,149.27
2018-05-01T15:20:46.748Z,148.93
2018-05-01T15:23:16.392Z,170.67
2018-05-01T15:25:44.171Z,164.47
2018-05-01T15:28:11.802Z,159.57
2018-05-01T15:30:39.398Z,156.13
2018-05-01T15:33:07.030Z,137.50
2018-05-01T15:35:34.627Z,137.80
2018-05-01T15:38:02.253Z,125.13
2018-05-01T15:40:29.864Z,120.90
2018-05-01T15:42:58.294Z,115.67
2018-05-01T15:45:25.884Z,114.73
2018-05-01T15:47:53.550Z,128.77
2018-05-01T15:50:21.175Z,117.77
2018-05-01T15:52:48.814Z,113.40
2018-05-01T15:55:17.242Z,117.27
2018-05-01T15:57:44.882Z,121.67
2018-05-01T16:00:12.499Z,89.50
2018-05-01T16:02:40.218Z,96.97
2018-05-01T16:05:07.857Z,61.50
2018-05-01T16:07:35.511Z,70.40
2018-05-01T16:10:03.883Z,73.47
2018-05-01T16:12:32.268Z,76.93
2018-05-01T16:15:01.001Z,84.60
2018-05-01T16:17:28.585Z,95.27
2018-05-01T16:19:56.232Z,85.70
2018-05-01T16:22:23.865Z,85.63
2018-05-01T16:24:51.451Z,89.47
2018-05-01T16:27:19.090Z,87.47
2018-05-01T16:29:46.762Z,91.80
2018-05-01T16:32:14.730Z,98.33
2018-05-01T16:34:43.055Z,87.53
2018-05-01T16:37:11.211Z,88.37
2018-05-01T16:39:39.646Z,82.63
2018-05-01T16:42:08.010Z,88.03
2018-05-01T16:44:37.212Z,89.00
2018-05-01T16:47:05.391Z,97.87
2018-05-01T16:49:33.682Z,103.63
2018-05-01T16:52:01.841Z,84.30
2018-05-01T16:54:30.050Z,88.70
2018-05-01T16:56:59.230Z,81.00
2018-05-01T16:59:27.613Z,65.30
2018-05-01T17:01:55.996Z,57.93
2018-05-01T17:04:24.247Z,55.90
2018-05-01T17:06:52.458Z,69.17
2018-05-01T17:09:20.829Z,48.67
2018-05-01T17:11:50.358Z,42.73
2018-05-01T17:14:19.114Z,69.77
2018-05-01T17:16:47.396Z,43.33
2018-05-01T17:19:15.524Z,48.60
2018-05-01T17:21:43.616Z,38.10
2018-05-01T17:24:11.904Z,40.03
2018-05-01T17:26:40.214Z,41.73
2018-05-01T17:29:09.316Z,46.43
2018-05-01T17:31:37.539Z,48.87
2018-05-01T17:34:05.872Z,55.00
2018-05-01T17:36:34.093Z,63.77
2018-05-01T17:39:02.332Z,71.83
2018-05-01T17:41:30.589Z,70.33
2018-05-01T17:43:58.832Z,70.00
2018-05-01T17:46:27.160Z,72.63
2018-05-01T17:48:56.154Z,74.93
2018-05-01T17:51:23.910Z,83.47
2018-05-01T17:53:51.960Z,87.50
2018-05-01T17:56:19.896Z,95.40
2018-05-01T17:58:47.801Z,96.90
2018-05-01T18:01:15.427Z,101.17
2018-05-01T18:03:44.233Z,111.13
2018-05-01T18:06:12.033Z,115.00
2018-05-01T18:08:40.476Z,107.60
2018-05-01T18:11:08.862Z,105.37
2018-05-01T18:13:37.072Z,98.73
2018-05-01T18:16:04.701Z,108.20
2018-05-01T18:18:32.325Z,110.80
2018-05-01T18:20:59.916Z,119.27
2018-05-01T18:23:27.525Z,134.83
2018-05-01T18:25:55.169Z,160.33
2018-05-01T18:28:22.749Z,161.43
2018-05-01T18:30:50.334Z,152.67
2018-05-01T18:33:18.266Z,176.43
2018-05-01T18:35:45.895Z,186.73
2018-05-01T18:38:13.489Z,182.63
2018-05-01T18:40:41.125Z,170.43
2018-05-01T18:43:08.709Z,185.13
2018-05-01T18:45:36.332Z,201.07
2018-05-01T18:48:03.915Z,191.10
2018-05-01T18:50:31.537Z,190.17
2018-05-01T18:52:59.124Z,181.33
2018-05-01T18:55:26.743Z,173.60
2018-05-01T18:57:54.346Z,159.10
2018-05-01T19:00:22.016Z,137.50
2018-05-01T19:02:49.746Z,116.97
2018-05-01T19:05:17.574Z,103.53
2018-05-01T19:07:45.140Z,96.70
2018-05-01T19:10:12.786Z,105.60
2018-05-01T19:12:40.410Z,90.60
2018-05-01T19:15:08.043Z,79.53
2018-05-01T19:17:35.682Z,71.67
2018-05-01T19:20:03.294Z,64.27
2018-05-01T19:22:31.670Z,62.53
2018-05-01T19:25:00.009Z,60.00
2018-05-01T19:27:27.618Z,66.20
2018-05-01T19:29:55.236Z,51.03
2018-05-01T19:32:22.863Z,50.73
2018-05-01T19:34:50.494Z,45.77
2018-05-01T19:37:18.081Z,52.13
2018-05-01T19:39:45.766Z,42.93
2018-05-01T19:42:13.339Z,40.10
2018-05-01T19:44:40.951Z,38.73
2018-05-01T19:47:09.337Z,39.00
2018-05-01T19:49:37.729Z,38.57
2018-05-01T19:52:05.375Z,41.67
2018-05-01T19:54:32.961Z,40.30
2018-05-01T19:57:00.550Z,38.37
2018-05-01T19:59:28.180Z,41.27
2018-05-01T20:01:55.769Z,40.13
2018-05-01T20:04:24.160Z,42.80
2018-05-01T20:06:51.798Z,45.63
2018-05-01T20:09:19.485Z,46.33
2018-05-01T20:11:47.058Z,44.97
2018-05-01T20:14:14.691Z,44.93
2018-05-01T20:16:42.269Z,48.70
2018-05-01T20:19:09.880Z,48.37
2018-05-01T20:21:37.504Z,46.33
2018-05-01T20:24:05.106Z,43.20
2018-05-01T20:26:32.825Z,42.10
2018-05-01T20:29:00.485Z,39.80
2018-05-01T20:31:28.061Z,32.47
2018-05-01T20:33:55.701Z,28.53
2018-05-01T20:36:23.419Z,30.20
2018-05-01T20:38:51.020Z,27.93
2018-05-01T20:41:18.642Z,28.13
2018-05-01T20:43:47.302Z,26.77
2018-05-01T20:46:14.919Z,26.40
2018-05-01T20:48:42.505Z,24.13
2018-05-01T20:51:10.123Z,22.87
2018-05-01T20:53:37.743Z,23.63
2018-05-01T20:56:05.325Z,25.23
2018-05-01T20:58:32.939Z,25.80
2018-05-01T21:01:00.522Z,28.93
2018-05-01T21:03:28.165Z,27.63
2018-05-01T21:05:55.752Z,28.57
2018-05-01T21:08:23.366Z,33.27
2018-05-01T21:10:51.014Z,45.17
2018-05-01T21:13:18.594Z,46.17
2018-05-01T21:15:46.202Z,55.20
2018-05-01T21:18:15.753Z,53.80
2018-05-01T21:20:43.385Z,58.90
2018-05-01T21:23:11.880Z,57.80
2018-05-01T21:25:39.833Z,57.93
2018-05-01T21:28:07.453Z,56.13
2018-05-01T21:30:35.296Z,58.20
2018-05-01T21:33:03.900Z,59.83
2018-05-01T21:35:31.674Z,59.53
2018-05-01T21:37:59.347Z,63.20
2018-05-01T21:40:27.726Z,63.43
2018-05-01T21:42:56.304Z,60.07
2018-05-01T21:45:25.403Z,57.33
2018-05-01T21:47:53.107Z,49.83
2018-05-01T21:50:20.693Z,48.90
2018-05-01T21:52:48.873Z,44.03
2018-05-01T21:55:16.545Z,42.50
2018-05-01T21:57:44.173Z,44.43
2018-05-01T22:00:11.796Z,41.23
2018-05-01T22:02:39.566Z,37.77
2018-05-01T22:05:07.294Z,39.07
2018-05-01T22:07:34.896Z,56.23
2018-05-01T22:10:02.704Z,57.63
2018-05-01T22:12:31.069Z,51.30
2018-05-01T22:14:58.713Z,52.03
2018-05-01T22:17:26.342Z,49.63
2018-05-01T22:19:53.930Z,49.17
2018-05-01T22:22:21.934Z,49.37
2018-05-01T22:24:49.706Z,48.90
2018-05-01T22:27:17.349Z,51.13
2018-05-01T22:29:44.924Z,45.33
2018-05-01T22:32:12.507Z,43.87
2018-05-01T22:34:40.128Z,32.43
2018-05-01T22:37:08.475Z,30.63
2018-05-01T22:39:36.052Z,32.70
2018-05-01T22:42:03.681Z,31.30
2018-05-01T22:44:31.263Z,29.50
2018-05-01T22:46:58.883Z,32.03
2018-05-01T22:49:26.501Z,30.17
2018-05-01T22:51:54.137Z,33.47
2018-05-01T22:54:21.709Z,33.50
2018-05-01T22:56:49.332Z,35.37
2018-05-01T22:59:16.986Z,37.13
2018-05-01T23:01:44.567Z,36.83
2018-05-01T23:04:12.197Z,37.57
2018-05-01T23:06:39.784Z,35.93
2018-05-01T23:09:07.411Z,35.87
2018-05-01T23:11:34.989Z,35.20
2018-05-01T23:14:03.245Z,37.80
2018-05-01T23:16:30.867Z,38.33
2018-05-01T23:18:58.497Z,36.23
2018-05-01T23:21:26.088Z,37.03
2018-05-01T23:23:53.681Z,35.03
2018-05-01T23:26:21.289Z,37.73
2018-05-01T23:28:48.901Z,39.33
2018-05-01T23:31:16.526Z,37.10
2018-05-01T23:33:44.170Z,35.73
2018-05-01T23:36:11.759Z,33.83
2018-05-01T23:38:39.386Z,33.93
2018-05-01T23:41:06.969Z,32.77
2018-05-01T23:43:34.599Z,32.47
2018-05-01T23:46:02.209Z,30.37
2018-05-01T23:48:29.812Z,30.77
2018-05-01T23:50:57.439Z,28.73
2018-05-01T23:53:25.016Z,30.20
2018-05-01T23:55:52.637Z,29.87
2018-05-01T23:58:20.226Z,30.60
